Time;durP1;ratioP1;P1;durP2;ratioP2;P2;SDS_P1;SDS_P2;PMS_P1;PMS_P2;Temp;Humidity;BMP_temperature;BMP_pressure;BME280_temperature;BME280_humidity;BME280_pressure;Samples;Min_cycle;Max_cycle;Signal;HPM_P1;HPM_P2
2023/08/04 00:00:41;;;;;;;13.68;4.80;;;16.60;99.90;;;18.10;100.00;99827.19;5014104;28;20041;-79
2023/08/04 00:03:07;;;;;;;19.30;5.35;;;16.50;99.90;;;18.02;100.00;99827.78;5034488;28;20038;-78
2023/08/04 00:05:33;;;;;;;13.98;4.80;;;16.50;99.90;;;18.01;100.00;99835.25;5010051;28;20041;-79
2023/08/04 00:07:58;;;;;;;11.25;5.20;;;16.60;99.90;;;17.59;100.00;99831.88;5017144;28;20495;-79
2023/08/04 00:10:25;;;;;;;10.25;4.75;;;16.60;99.90;;;17.63;100.00;99849.53;5027790;28;20508;-79
2023/08/04 00:12:51;;;;;;;10.73;4.80;;;16.60;99.90;;;17.86;100.00;99843.59;5017834;28;20040;-78
2023/08/04 00:15:17;;;;;;;13.23;5.15;;;16.60;99.90;;;17.77;100.00;99851.63;5029204;28;20025;-76
2023/08/04 00:17:42;;;;;;;11.60;4.43;;;16.60;99.90;;;17.85;100.00;99851.06;5023980;28;20488;-77
2023/08/04 00:20:10;;;;;;;19.88;5.45;;;16.50;99.90;;;18.02;100.00;99855.38;5039375;28;20075;-78
2023/08/04 00:22:37;;;;;;;11.80;4.93;;;16.50;99.90;;;17.78;100.00;99856.88;5015110;28;20047;-78
2023/08/04 00:25:05;;;;;;;12.50;5.20;;;16.50;99.90;;;17.98;100.00;99855.91;5025409;28;20100;-78
2023/08/04 00:27:32;;;;;;;14.27;4.93;;;16.40;99.90;;;17.62;100.00;99850.63;5023944;28;20397;-77
2023/08/04 00:29:58;;;;;;;11.20;4.80;;;16.40;99.90;;;17.57;100.00;99847.06;5025147;28;20453;-79
2023/08/04 00:32:24;;;;;;;13.93;5.35;;;16.40;99.90;;;17.88;100.00;99849.66;5027336;28;20052;-78
2023/08/04 00:34:50;;;;;;;14.18;5.22;;;16.40;99.90;;;17.76;100.00;99858.25;5031525;28;20042;-78
2023/08/04 00:37:16;;;;;;;12.40;5.10;;;16.40;99.90;;;17.63;100.00;99855.03;5025904;28;20026;-78
2023/08/04 00:39:41;;;;;;;12.52;5.03;;;16.30;99.90;;;17.68;100.00;99857.75;5025701;28;20095;-78
2023/08/04 00:42:07;;;;;;;13.63;5.30;;;16.30;99.90;;;17.84;100.00;99871.47;5027175;28;20045;-79
2023/08/04 00:44:33;;;;;;;14.52;5.28;;;16.20;99.90;;;17.80;100.00;99878.69;5031328;28;20075;-78
2023/08/04 00:47:00;;;;;;;12.98;5.65;;;16.20;99.90;;;17.57;100.00;99869.97;5023710;28;20037;-78
2023/08/04 00:49:25;;;;;;;12.98;5.40;;;16.20;99.90;;;17.54;100.00;99865.81;5019622;28;20128;-78
2023/08/04 00:51:52;;;;;;;17.38;6.18;;;16.20;99.90;;;17.62;100.00;99863.56;5030506;28;20068;-78
2023/08/04 00:54:19;;;;;;;;;;;16.20;99.90;;;17.74;100.00;99872.34;5031279;28;20034;-78
2023/08/04 00:56:46;;;;;;;15.30;5.03;;;16.20;99.90;;;17.23;100.00;99867.88;5028142;28;20080;-78
2023/08/04 00:59:12;;;;;;;14.43;5.53;;;16.10;99.90;;;17.51;100.00;99865.59;5030574;28;20025;-78
2023/08/04 01:01:38;;;;;;;13.80;5.30;;;16.10;99.90;;;17.38;100.00;99876.09;5030457;28;20048;-78
2023/08/04 01:04:04;;;;;;;12.43;5.05;;;16.10;99.90;;;17.58;100.00;99888.16;5030595;28;20034;-78
2023/08/04 01:07:04;;;;;;;13.68;5.10;;;16.10;99.90;;;17.42;100.00;99881.03;5029750;28;20124;-79
2023/08/04 01:09:49;;;;;;;12.68;4.68;;;16.10;99.90;;;17.39;100.00;99886.00;5045070;28;20125;-80
2023/08/04 01:12:26;;;;;;;16.20;5.07;;;16.10;99.90;;;17.07;100.00;99878.94;5042538;28;20038;-78
2023/08/04 01:14:54;;;;;;;9.77;4.28;;;16.00;99.90;;;16.97;100.00;99881.66;5041033;28;20038;-78
2023/08/04 01:17:30;;;;;;;12.30;4.50;;;16.00;99.90;;;17.20;100.00;99884.97;5030914;28;20036;-78
2023/08/04 01:19:58;;;;;;;17.27;4.35;;;16.00;99.90;;;16.87;100.00;99881.69;5031788;28;20033;-80
2023/08/04 01:22:26;;;;;;;15.77;4.90;;;16.00;99.90;;;16.96;100.00;99883.63;5020597;28;20040;-79
2023/08/04 01:24:54;;;;;;;9.80;3.80;;;16.00;99.90;;;16.73;100.00;99879.53;5041035;28;20038;-81
2023/08/04 01:27:38;;;;;;;11.23;4.10;;;15.90;99.90;;;16.95;100.00;99883.88;5024690;28;20390;-79
2023/08/04 01:30:13;;;;;;;10.90;4.40;;;15.90;99.90;;;16.67;100.00;99886.13;5046979;28;20507;-81
2023/08/04 01:32:39;;;;;;;8.43;3.88;;;15.80;99.90;;;16.54;100.00;99879.25;5031095;28;20120;-81
2023/08/04 01:35:08;;;;;;;13.55;4.75;;;15.80;99.90;;;16.64;100.00;99878.41;5029243;28;20033;-80
2023/08/04 01:37:34;;;;;;;14.48;4.43;;;15.70;99.90;;;16.52;100.00;99874.03;5031386;28;20029;-80
2023/08/04 01:39:59;;;;;;;10.93;4.88;;;15.70;99.90;;;16.43;100.00;99883.09;5046176;28;20748;-80
2023/08/04 01:42:25;;;;;;;18.95;4.70;;;15.60;99.90;;;16.52;100.00;99865.78;5019579;28;20481;-80
2023/08/04 01:44:52;;;;;;;13.55;5.00;;;15.50;99.90;;;16.66;100.00;99879.81;5034159;28;20053;-77
2023/08/04 01:47:17;;;;;;;14.20;5.05;;;15.40;99.90;;;16.58;100.00;99876.78;5019902;28;20461;-78
2023/08/04 01:49:44;;;;;;;16.02;5.15;;;15.40;99.90;;;16.62;100.00;99886.13;5028872;28;20037;-79
2023/08/04 01:52:10;;;;;;;14.30;5.15;;;15.20;99.90;;;16.49;100.00;99898.53;5030531;28;20377;-78
2023/08/04 01:54:36;;;;;;;9.65;4.50;;;15.20;99.90;;;16.62;100.00;99906.25;5018155;28;20033;-79
2023/08/04 01:57:02;;;;;;;17.38;5.55;;;15.10;99.90;;;16.56;100.00;99907.31;5029312;28;20444;-78
2023/08/04 01:59:28;;;;;;;15.07;4.72;;;15.00;99.90;;;16.52;100.00;99912.56;5043493;28;20045;-78
2023/08/04 02:01:53;;;;;;;16.23;5.78;;;14.90;99.90;;;16.36;100.00;99914.50;5025688;28;20049;-78
2023/08/04 02:04:19;;;;;;;15.90;5.65;;;14.80;99.90;;;16.52;100.00;99914.47;5028738;28;20034;-78
2023/08/04 02:06:45;;;;;;;16.10;5.18;;;14.80;99.90;;;16.45;100.00;99922.19;5029202;28;20132;-78
2023/08/04 02:09:14;;;;;;;12.98;5.75;;;14.70;99.90;;;16.44;100.00;99926.06;5028159;28;20113;-78
2023/08/04 02:11:41;;;;;;;15.95;5.80;;;14.60;99.90;;;16.39;100.00;99938.72;5024220;28;20095;-78
2023/08/04 02:14:07;;;;;;;15.55;5.75;;;14.50;99.90;;;16.31;100.00;99922.75;5030866;28;20021;-78
2023/08/04 02:16:33;;;;;;;16.75;5.90;;;14.50;99.90;;;16.31;100.00;99919.16;5027995;28;20046;-78
2023/08/04 02:19:09;;;;;;;17.35;5.80;;;14.50;99.90;;;16.31;100.00;99930.16;5025528;28;20079;-79
2023/08/04 02:21:36;;;;;;;20.95;6.30;;;14.50;99.90;;;16.32;100.00;99926.31;5029496;28;20096;-78
2023/08/04 02:24:03;;;;;;;15.63;6.28;;;14.50;99.90;;;16.38;100.00;99923.31;5028879;28;20021;-79
2023/08/04 02:26:30;;;;;;;16.07;5.70;;;14.50;99.90;;;16.31;100.00;99925.50;5028983;28;20041;-79
2023/08/04 02:28:56;;;;;;;17.40;6.07;;;14.50;99.90;;;16.37;100.00;99929.06;5026389;28;20084;-78
2023/08/04 02:31:25;;;;;;;13.98;5.82;;;14.50;99.90;;;16.35;100.00;99934.00;5024326;28;20034;-78
2023/08/04 02:33:52;;;;;;;17.80;5.93;;;14.50;99.90;;;16.35;100.00;99932.09;5025282;28;20034;-79
2023/08/04 02:36:19;;;;;;;19.88;6.97;;;14.50;99.90;;;16.37;100.00;99940.91;5026416;28;20034;-79
2023/08/04 02:38:45;;;;;;;16.58;5.88;;;14.50;99.90;;;16.35;100.00;99942.28;5026226;28;20034;-78
2023/08/04 02:41:12;;;;;;;21.15;6.22;;;14.50;99.90;;;16.24;100.00;99946.94;5020437;28;20041;-79
2023/08/04 02:43:39;;;;;;;18.83;6.93;;;14.50;99.90;;;16.31;100.00;99928.25;5044039;28;20441;-78
2023/08/04 02:46:05;;;;;;;14.52;6.32;;;14.60;99.90;;;16.22;100.00;99927.97;5027043;28;20087;-78
2023/08/04 02:48:33;;;;;;;17.85;6.53;;;14.60;99.90;;;16.35;100.00;99934.00;5028343;28;20049;-78
2023/08/04 02:51:11;;;;;;;18.90;7.05;;;14.60;99.90;;;16.18;100.00;99926.84;5030851;28;20103;-79
2023/08/04 02:53:42;;;;;;;17.95;6.03;;;14.60;99.90;;;16.46;100.00;99929.34;5028144;28;20034;-78
2023/08/04 02:56:18;;;;;;;18.92;6.72;;;14.70;99.90;;;16.46;100.00;99941.22;5028337;28;20099;-78
2023/08/04 02:58:46;;;;;;;15.15;6.65;;;14.60;99.90;;;16.53;100.00;99944.50;5028401;28;20042;-77
2023/08/04 03:01:13;;;;;;;18.13;6.55;;;14.60;99.90;;;16.50;100.00;99956.06;5028653;28;20128;-77
2023/08/04 03:03:39;;;;;;;17.67;6.38;;;14.60;99.90;;;16.58;100.00;99957.47;5040771;28;20649;-78
2023/08/04 03:06:06;;;;;;;14.13;6.55;;;14.60;99.90;;;16.60;100.00;99959.94;5024223;28;20045;-78
2023/08/04 03:08:31;;;;;;;15.93;6.05;;;14.70;99.90;;;16.56;100.00;99964.34;5027879;28;20123;-78
2023/08/04 03:10:58;;;;;;;19.80;7.07;;;14.70;99.90;;;16.47;100.00;99962.13;5019519;28;20092;-79
2023/08/04 03:13:24;;;;;;;12.55;6.13;;;14.70;99.90;;;16.63;100.00;99975.91;5014560;28;20095;-79
2023/08/04 03:16:01;;;;;;;12.35;5.45;;;14.70;99.90;;;16.64;100.00;99972.03;5017437;28;20045;-80
2023/08/04 03:18:27;;;;;;;13.05;5.95;;;14.70;99.90;;;16.65;100.00;99979.19;5027447;28;20037;-79
2023/08/04 03:20:54;;;;;;;11.65;5.88;;;14.70;99.90;;;16.54;100.00;99984.69;5017534;28;20042;-79
2023/08/04 03:23:21;;;;;;;13.30;5.70;;;14.70;99.90;;;16.46;100.00;99976.16;5019860;28;20034;-79
2023/08/04 03:25:48;;;;;;;17.35;6.03;;;14.70;99.90;;;16.50;100.00;99989.09;5015217;28;20042;-79
2023/08/04 03:28:14;;;;;;;14.52;5.60;;;14.60;99.90;;;16.50;100.00;99999.28;5020599;28;20034;-79
2023/08/04 03:30:40;;;;;;;14.98;5.75;;;14.50;99.90;;;16.45;100.00;99997.38;5015262;28;20046;-79
2023/08/04 03:33:06;;;;;;;16.33;5.25;;;14.50;99.90;;;16.41;100.00;100001.72;5024318;28;20116;-78
2023/08/04 03:35:32;;;;;;;14.88;5.55;;;14.50;99.90;;;16.45;100.00;99999.28;5022371;28;20116;-79
2023/08/04 03:37:58;;;;;;;16.05;6.15;;;14.50;99.90;;;16.38;100.00;100002.28;5021723;28;20049;-79
2023/08/04 03:40:23;;;;;;;15.57;5.38;;;14.50;99.90;;;16.42;100.00;100003.38;5027586;28;20052;-79
2023/08/04 03:42:49;;;;;;;16.38;6.00;;;14.50;99.90;;;16.47;100.00;100011.69;5024375;28;20037;-79
2023/08/04 03:45:15;;;;;;;14.70;5.97;;;14.50;99.90;;;16.55;100.00;100018.56;5019432;28;20403;-78
2023/08/04 03:47:40;;;;;;;15.50;5.40;;;14.60;99.90;;;16.58;100.00;100019.94;5020825;28;20037;-77
2023/08/04 03:50:07;;;;;;;12.27;5.20;;;14.60;99.90;;;16.55;100.00;100018.56;5026199;28;20049;-79
2023/08/04 03:52:33;;;;;;;20.55;6.15;;;14.60;99.90;;;16.60;100.00;100029.59;5028288;28;20099;-79
2023/08/04 03:54:59;;;;;;;13.48;5.68;;;14.70;99.90;;;16.52;100.00;100025.44;5019008;28;20041;-79
2023/08/04 03:57:25;;;;;;;15.90;5.70;;;14.70;99.90;;;16.63;100.00;100034.56;5042822;28;20064;-79
2023/08/04 03:59:53;;;;;;;10.25;5.70;;;14.70;99.90;;;16.66;100.00;100042.28;5022010;28;21825;-79
2023/08/04 04:02:19;;;;;;;;;;;14.70;99.90;;;16.66;100.00;100035.94;5015335;28;20045;-79
2023/08/04 04:04:45;;;;;;;14.70;5.22;;;14.70;99.90;;;16.66;100.00;100038.69;5021289;28;19925;-79
2023/08/04 04:07:10;;;;;;;13.60;5.13;;;14.70;99.90;;;16.68;100.00;100037.31;5031276;28;20053;-79
2023/08/04 04:09:36;;;;;;;14.57;4.90;;;14.80;99.90;;;16.70;100.00;100050.00;5031085;28;20095;-79
2023/08/04 04:12:02;;;;;;;15.68;5.25;;;14.70;99.90;;;16.68;100.00;100048.34;5029607;28;20038;-79
2023/08/04 04:14:28;;;;;;;11.18;5.10;;;14.80;99.90;;;16.70;100.00;100050.78;5030648;28;20149;-79
2023/08/04 04:16:54;;;;;;;13.13;5.32;;;14.80;99.90;;;16.67;100.00;100041.16;5030322;28;20120;-79
2023/08/04 04:19:20;;;;;;;14.57;4.57;;;14.80;99.90;;;16.71;100.00;100055.22;5026926;28;20044;-79
2023/08/04 04:21:45;;;;;;;12.48;4.72;;;14.90;99.90;;;16.68;100.00;100055.75;5020174;28;20033;-78
2023/08/04 04:24:11;;;;;;;9.73;4.60;;;14.90;99.90;;;16.79;100.00;100062.94;5022798;28;20074;-79
2023/08/04 04:26:37;;;;;;;10.00;4.70;;;14.90;99.90;;;16.86;100.00;100072.88;5031101;28;20029;-79
2023/08/04 04:29:02;;;;;;;16.52;4.50;;;14.90;99.90;;;16.78;100.00;100077.81;5031417;28;20048;-80
2023/08/04 04:31:28;;;;;;;16.73;4.65;;;14.90;99.90;;;16.81;100.00;100080.03;5027424;28;20449;-79
2023/08/04 04:33:54;;;;;;;11.75;4.43;;;14.90;99.90;;;16.71;100.00;100079.19;5024381;28;20045;-78
2023/08/04 04:36:20;;;;;;;14.20;4.85;;;14.90;99.90;;;16.87;100.00;100083.63;5024920;28;20041;-78
2023/08/04 04:38:45;;;;;;;15.15;4.00;;;15.00;99.90;;;16.85;100.00;100082.25;5030804;28;20122;-80
2023/08/04 04:41:11;;;;;;;13.18;4.78;;;15.00;99.90;;;16.93;100.00;100089.97;5025533;28;20052;-79
2023/08/04 04:43:37;;;;;;;12.52;4.93;;;15.00;99.90;;;16.89;100.00;100083.34;5030796;28;20037;-79
2023/08/04 04:46:03;;;;;;;7.10;3.65;;;15.00;99.90;;;16.96;100.00;100078.38;5017588;28;20037;-79
2023/08/04 04:48:29;;;;;;;9.43;3.95;;;15.10;99.90;;;16.96;100.00;100093.00;5039653;28;20041;-78
2023/08/04 04:50:55;;;;;;;14.30;4.57;;;15.10;99.90;;;16.96;100.00;100090.25;5030947;28;20435;-79
2023/08/04 04:53:21;;;;;;;13.77;4.15;;;15.10;99.90;;;16.99;100.00;100094.44;5024823;28;20030;-79
2023/08/04 04:55:47;;;;;;;11.20;3.88;;;15.10;99.90;;;17.02;100.00;100099.38;5019752;28;20190;-79
2023/08/04 04:58:14;;;;;;;12.75;3.97;;;15.20;99.90;;;17.02;100.00;100093.03;5021075;28;20037;-79
2023/08/04 05:00:40;;;;;;;14.52;4.40;;;15.20;99.90;;;17.10;100.00;100090.56;5021007;28;20509;-78
2023/08/04 05:03:08;;;;;;;11.52;4.30;;;15.20;99.90;;;17.08;100.00;100097.44;5022356;28;20034;-78
2023/08/04 05:05:35;;;;;;;14.05;4.15;;;15.20;99.90;;;17.13;100.00;100102.16;5018681;28;20738;-79
2023/08/04 05:08:01;;;;;;;9.40;3.97;;;15.30;99.90;;;17.14;100.00;100101.03;5023022;28;20049;-79
2023/08/04 05:10:27;;;;;;;8.00;3.47;;;15.30;99.90;;;17.27;100.00;100102.44;5027606;28;20093;-77
2023/08/04 05:12:53;;;;;;;8.75;3.70;;;15.40;99.90;;;17.31;100.00;100107.13;5024669;28;20042;-77
2023/08/04 05:15:19;;;;;;;8.90;3.50;;;15.50;99.90;;;17.31;100.00;100117.31;5030685;28;20449;-77
2023/08/04 05:17:45;;;;;;;12.27;4.13;;;15.60;99.90;;;17.48;100.00;100126.16;5030206;28;20033;-78
2023/08/04 05:20:14;;;;;;;10.07;3.35;;;15.70;99.90;;;17.46;100.00;100133.03;5029966;28;20033;-76
2023/08/04 05:22:40;;;;;;;13.52;3.50;;;15.80;99.90;;;17.75;100.00;100140.72;5030621;28;20033;-77
2023/08/04 05:25:07;;;;;;;9.20;3.50;;;15.90;99.90;;;17.73;100.00;100156.72;5029792;28;20042;-78
2023/08/04 05:27:33;;;;;;;9.30;3.33;;;16.00;99.90;;;17.80;100.00;100152.59;5029263;28;20057;-80
2023/08/04 05:30:00;;;;;;;8.05;3.17;;;16.00;99.90;;;17.86;100.00;100166.38;5012746;28;20521;-79
2023/08/04 05:32:27;;;;;;;10.52;2.95;;;16.10;99.90;;;17.97;100.00;100168.84;5029749;28;20453;-79
2023/08/04 05:34:52;;;;;;;12.32;3.13;;;16.20;99.90;;;18.04;100.00;100168.59;5029679;28;20048;-79
2023/08/04 05:37:18;;;;;;;8.32;2.88;;;16.20;99.90;;;18.17;100.00;100174.63;5044107;28;20033;-79
2023/08/04 05:39:45;;;;;;;7.97;3.30;;;16.30;99.90;;;18.03;100.00;100168.88;5028350;28;20033;-79
2023/08/04 05:42:11;;;;;;;12.00;3.20;;;16.30;99.90;;;18.19;100.00;100192.59;5029692;28;20038;-80
2023/08/04 05:44:36;;;;;;;9.60;3.15;;;16.30;99.90;;;18.17;100.00;100185.69;5027968;28;20041;-80
2023/08/04 05:47:02;;;;;;;9.88;2.75;;;16.30;99.90;;;18.13;100.00;100188.19;5029023;28;20430;-79
2023/08/04 05:49:32;;;;;;;7.85;2.92;;;16.40;99.90;;;18.17;100.00;100185.69;5028032;28;20087;-78
2023/08/04 05:51:59;;;;;;;10.02;3.40;;;16.30;99.90;;;18.01;100.00;100174.69;5027876;28;20041;-78
2023/08/04 05:54:25;;;;;;;8.65;3.13;;;16.30;99.90;;;18.16;100.00;100189.53;5029333;28;20033;-77
2023/08/04 05:56:50;;;;;;;8.85;3.80;;;16.40;99.90;;;18.23;100.00;100187.34;5017628;28;20499;-76
2023/08/04 05:59:16;;;;;;;10.65;3.50;;;16.40;99.90;;;18.31;100.00;100194.22;5034604;28;20034;-77
2023/08/04 06:01:42;;;;;;;11.50;3.47;;;16.40;99.90;;;18.20;100.00;100194.25;5018396;28;20041;-77
2023/08/04 06:04:08;;;;;;;5.07;2.83;;;16.50;99.90;;;18.29;100.00;100199.19;5017193;28;20386;-77
2023/08/04 06:06:33;;;;;;;9.65;3.75;;;16.50;99.90;;;18.38;100.00;100206.63;5028193;28;20060;-76
2023/08/04 06:08:59;;;;;;;13.32;3.70;;;16.50;99.90;;;18.36;100.00;100205.25;5023799;28;20047;-76
2023/08/04 06:11:25;;;;;;;8.80;3.20;;;16.60;99.90;;;18.39;100.00;100216.56;5029144;28;20037;-77
2023/08/04 06:13:50;;;;;;;9.23;3.00;;;16.60;99.90;;;18.43;100.00;100219.59;5028921;28;20037;-77
2023/08/04 06:16:16;;;;;;;9.93;3.30;;;16.70;99.90;;;18.34;100.00;100215.75;5044210;28;20037;-77
2023/08/04 06:18:42;;;;;;;8.85;3.10;;;16.80;99.90;;;18.30;100.00;100229.28;5029044;28;20029;-78
2023/08/04 06:21:08;;;;;;;10.25;2.83;;;16.80;99.90;;;18.53;100.00;100225.06;5041710;28;20453;-77
2023/08/04 06:23:33;;;;;;;7.18;2.83;;;16.80;99.90;;;18.44;100.00;100226.75;5028182;28;20039;-78
2023/08/04 06:25:59;;;;;;;7.38;2.92;;;16.90;99.90;;;18.57;100.00;100233.63;5018024;28;20028;-76
2023/08/04 06:28:25;;;;;;;6.18;2.80;;;17.00;99.90;;;18.59;100.00;100227.84;5028367;28;20148;-77
2023/08/04 06:30:50;;;;;;;7.78;2.60;;;17.00;99.90;;;18.89;100.00;100228.84;5024806;28;20041;-76
2023/08/04 06:33:16;;;;;;;7.47;3.00;;;17.20;99.90;;;19.06;100.00;100245.91;5020218;28;20116;-77
2023/08/04 06:35:44;;;;;;;8.27;3.15;;;17.40;99.90;;;19.24;100.00;100243.59;5021869;28;20045;-87
2023/08/04 06:38:10;;;;;;;8.57;2.50;;;17.50;99.90;;;19.26;100.00;100245.00;5028806;28;20418;-78
2023/08/04 06:40:37;;;;;;;6.25;2.40;;;17.60;99.90;;;19.61;100.00;100239.50;5029991;28;20452;-79
2023/08/04 06:43:03;;;;;;;7.55;2.35;;;17.90;99.90;;;19.76;100.00;100248.81;5023015;28;20109;-80
2023/08/04 06:45:29;;;;;;;7.75;2.60;;;18.10;99.90;;;19.40;100.00;100259.00;5026430;28;20133;-80
2023/08/04 06:47:55;;;;;;;7.70;2.28;;;18.10;99.90;;;19.79;100.00;100264.84;5018830;28;20044;-78
2023/08/04 06:50:21;;;;;;;9.52;3.17;;;18.10;99.90;;;19.66;100.00;100266.31;5028901;28;20040;-78
2023/08/04 06:52:47;;;;;;;5.90;2.35;;;18.20;99.90;;;19.74;100.00;100264.88;5018046;28;20370;-79
2023/08/04 06:55:13;;;;;;;12.93;2.53;;;18.40;99.90;;;19.34;100.00;100271.19;5028668;28;20044;-78
2023/08/04 06:57:39;;;;;;;7.10;2.47;;;18.30;99.90;;;19.13;100.00;100280.72;5028086;28;20112;-79
2023/08/04 07:00:06;;;;;;;6.68;2.25;;;18.20;99.90;;;18.92;100.00;100278.00;5030776;28;20695;-78
2023/08/04 07:02:32;;;;;;;6.13;2.28;;;18.20;99.90;;;19.51;100.00;100272.78;5027559;28;20046;-77
2023/08/04 07:04:58;;;;;;;10.43;2.55;;;18.10;99.90;;;19.45;100.00;100285.78;5038811;28;20137;-77
2023/08/04 07:07:24;;;;;;;6.88;2.17;;;18.30;99.90;;;19.05;100.00;100280.19;5019311;28;20050;-83
2023/08/04 07:09:49;;;;;;;5.80;2.20;;;18.10;99.90;;;19.05;100.00;100269.13;5025034;28;20048;-77
2023/08/04 07:12:15;;;;;;;6.13;2.28;;;18.20;99.90;;;19.14;100.00;100282.38;5024558;28;20392;-77
2023/08/04 07:14:41;;;;;;;6.03;2.35;;;18.00;99.90;;;19.34;100.00;100271.19;5023840;28;20120;-78
2023/08/04 07:17:07;;;;;;;8.60;2.10;;;18.10;99.90;;;19.55;100.00;100299.59;5022931;28;20473;-75
2023/08/04 07:19:32;;;;;;;7.10;2.10;;;18.20;99.90;;;19.22;100.00;100292.84;5024217;28;20103;-76
2023/08/04 07:21:58;;;;;;;6.57;2.22;;;18.20;99.90;;;19.24;100.00;100297.00;5029054;28;20482;-76
2023/08/04 07:24:25;;;;;;;5.05;2.17;;;18.10;99.90;;;19.79;100.00;100309.09;5028132;28;20069;-76
2023/08/04 07:26:51;;;;;;;8.53;2.37;;;18.30;99.90;;;19.97;100.00;100307.63;5030210;28;20445;-76
2023/08/04 07:29:17;;;;;;;6.75;1.90;;;18.50;99.90;;;19.96;100.00;100315.13;5015824;28;20042;-76
2023/08/04 07:31:42;;;;;;;8.18;2.47;;;18.50;99.90;;;19.97;100.00;100318.69;5019628;28;20045;-77
2023/08/04 07:34:08;;;;;;;8.52;2.10;;;18.50;99.90;;;19.92;100.00;100325.13;5025184;28;20044;-78
2023/08/04 07:36:34;;;;;;;7.20;1.75;;;18.60;99.90;;;19.98;100.00;100321.19;5027333;28;20041;-75
2023/08/04 07:38:59;;;;;;;6.20;1.52;;;18.60;99.90;;;20.31;100.00;100323.44;5027224;28;20498;-76
2023/08/04 07:41:25;;;;;;;6.22;2.00;;;18.70;99.90;;;19.95;100.00;100332.84;5028342;28;20413;-77
2023/08/04 07:43:52;;;;;;;7.50;2.08;;;18.60;99.90;;;20.37;100.00;100324.19;5024537;28;20366;-76
2023/08/04 07:46:26;;;;;;;7.38;2.00;;;18.70;99.90;;;20.21;100.00;100331.81;5030631;28;20044;-75
2023/08/04 07:48:53;;;;;;;5.50;2.40;;;18.80;99.90;;;20.34;100.00;100336.69;5025998;28;20033;-76
2023/08/04 07:51:20;;;;;;;5.63;1.88;;;18.90;99.90;;;20.34;100.00;100333.91;5022441;28;20038;-75
2023/08/04 07:53:47;;;;;;;6.25;2.03;;;19.00;99.90;;;20.68;100.00;100334.97;5022375;28;20478;-76
2023/08/04 07:56:13;;;;;;;5.53;1.93;;;19.20;99.90;;;19.81;100.00;100335.41;5024410;28;20045;-75
2023/08/04 07:58:41;;;;;;;8.05;2.10;;;19.00;99.90;;;19.53;100.00;100342.47;5035254;28;20456;-75
2023/08/04 08:01:07;;;;;;;8.13;2.17;;;18.60;99.90;;;19.89;100.00;100346.97;5028982;28;20079;-75
2023/08/04 08:03:34;;;;;;;5.18;1.95;;;18.80;99.90;;;20.35;100.00;100354.97;5022613;28;20076;-74
2023/08/04 08:06:01;;;;;;;;;;;19.00;99.90;;;20.54;100.00;100355.06;5022533;28;20065;-75
2023/08/04 08:08:28;;;;;;;7.18;1.70;;;19.30;99.90;;;20.36;100.00;100351.06;5029547;28;19917;-75
2023/08/04 08:10:55;;;;;;;6.93;1.67;;;19.30;99.90;;;20.84;100.00;100355.91;5019079;28;20135;-78
2023/08/04 08:13:22;;;;;;;6.18;1.73;;;19.50;99.90;;;21.38;100.00;100352.25;5027112;28;20095;-76
2023/08/04 08:15:48;;;;;;;7.32;1.88;;;19.80;99.90;;;21.48;100.00;100356.81;5028778;28;20030;-76
2023/08/04 08:18:14;;;;;;;6.40;1.48;;;20.10;99.90;;;21.87;100.00;100355.78;5022461;28;20069;-76
2023/08/04 08:20:41;;;;;;;4.97;1.70;;;20.30;99.90;;;21.80;100.00;100349.78;5028890;28;20037;-75
2023/08/04 08:23:08;;;;;;;5.10;1.48;;;20.40;99.90;;;22.18;100.00;100340.59;5026142;28;20083;-78
2023/08/04 08:25:37;;;;;;;6.95;1.80;;;20.60;99.90;;;22.49;100.00;100360.34;5032768;28;20448;-77
2023/08/04 08:28:04;;;;;;;5.65;1.40;;;20.70;99.90;;;22.12;100.00;100364.84;5019525;28;20054;-79
2023/08/04 08:30:30;;;;;;;3.90;1.53;;;20.80;99.90;;;22.27;100.00;100370.13;5028345;28;20458;-75
2023/08/04 08:32:57;;;;;;;5.90;1.50;;;20.70;99.90;;;21.59;100.00;100363.91;5018343;28;20057;-75
2023/08/04 08:35:24;;;;;;;5.32;1.80;;;20.50;99.90;;;21.95;100.00;100365.38;5028317;28;20100;-77
2023/08/04 08:37:50;;;;;;;6.90;1.77;;;20.60;99.90;;;22.24;100.00;100372.72;5033630;28;20042;-76
2023/08/04 08:40:17;;;;;;;9.48;1.70;;;20.80;99.90;;;22.44;100.00;100367.94;5022711;28;20045;-77
2023/08/04 08:42:43;;;;;;;6.13;1.67;;;20.80;99.90;;;22.58;100.00;100370.81;5034071;28;20080;-76
2023/08/04 08:45:10;;;;;;;6.22;1.60;;;20.90;99.90;;;22.42;100.00;100359.91;5028489;28;20061;-77
2023/08/04 08:47:43;;;;;;;5.90;1.92;;;21.10;99.90;;;22.42;100.00;100371.03;5024799;28;20129;-77
2023/08/04 08:50:12;;;;;;;6.22;1.60;;;21.10;99.90;;;22.86;100.00;100385.56;5027884;28;20045;-75
2023/08/04 08:52:39;;;;;;;7.78;1.95;;;;;;;23.04;100.00;100381.06;5027318;28;20079;-75
2023/08/04 08:55:06;;;;;;;4.25;1.30;;;21.20;99.90;;;22.49;100.00;100379.81;5019011;28;20038;-77
2023/08/04 08:57:32;;;;;;;4.45;1.40;;;21.40;99.90;;;23.05;100.00;100381.88;5026321;28;20076;-76
2023/08/04 09:00:00;;;;;;;4.03;1.30;;;21.60;99.90;;;22.52;100.00;100392.28;5024127;28;20074;-80
2023/08/04 09:02:26;;;;;;;4.95;1.50;;;21.50;99.90;;;22.68;100.00;100393.69;5032939;28;20052;-77
2023/08/04 09:04:54;;;;;;;4.55;1.50;;;21.50;99.90;;;23.09;100.00;100378.19;5030063;28;20044;-78
2023/08/04 09:07:23;;;;;;;4.88;1.38;;;21.60;99.90;;;22.58;100.00;100393.03;5040688;28;20042;-77
2023/08/04 09:09:49;;;;;;;5.63;1.75;;;21.70;99.90;;;22.72;100.00;100399.44;5049707;28;20045;-77
2023/08/04 09:12:16;;;;;;;8.02;1.23;;;21.50;99.90;;;23.25;100.00;100389.03;5049117;28;20094;-75
2023/08/04 09:14:55;;;;;;;7.57;1.60;;;21.70;99.90;;;22.87;100.00;100383.63;5040514;28;20044;-76
2023/08/04 09:17:37;;;;;;;5.55;1.38;;;21.80;99.90;;;22.97;100.00;100402.88;5028211;28;20049;-76
2023/08/04 09:20:08;;;;;;;5.45;1.40;;;21.70;99.90;;;23.19;100.00;100395.81;5025692;28;20076;-74
2023/08/04 09:22:44;;;;;;;4.05;1.30;;;21.90;99.90;;;22.78;100.00;100394.63;5026574;28;20046;-75
2023/08/04 09:25:10;;;;;;;4.28;1.40;;;21.70;99.90;;;22.47;100.00;100393.19;5038683;28;20114;-76
2023/08/04 09:27:49;;;;;;;3.97;1.20;;;21.50;99.90;;;22.80;100.00;100395.94;5019802;28;20033;-74
2023/08/04 09:30:16;;;;;;;3.80;1.30;;;21.50;99.90;;;22.79;100.00;100404.63;5019452;28;20470;-75
2023/08/04 09:32:50;;;;;;;5.47;1.70;;;;;;;23.72;100.00;100397.22;5027027;28;20037;-75
2023/08/04 09:35:16;;;;;;;4.15;1.23;;;;;;;23.93;98.25;100392.03;5018766;28;20493;-75
2023/08/04 09:37:43;;;;;;;4.65;1.52;;;;;;;24.50;97.75;100399.06;5014849;28;20054;-76
2023/08/04 09:40:17;;;;;;;4.40;1.30;;;;;;;23.71;100.00;100395.56;5026722;28;20050;-76
2023/08/04 09:42:44;;;;;;;3.88;1.13;;;;;;;24.13;100.00;100399.13;5027608;28;20068;-76
2023/08/04 09:45:18;;;;;;;2.15;1.10;;;;;;;23.25;100.00;100391.81;5021746;28;20128;-76
2023/08/04 09:47:49;;;;;;;4.72;1.58;;;;;;;22.91;100.00;100393.00;5039879;28;20041;-76
2023/08/04 09:50:18;;;;;;;3.22;1.38;;;21.50;99.90;;;22.70;100.00;100379.47;5026359;28;20048;-76
2023/08/04 09:52:44;;;;;;;4.65;1.30;;;22.30;99.90;;;22.66;100.00;100400.66;5017824;28;20037;-75
2023/08/04 09:55:10;;;;;;;4.93;1.30;;;22.00;99.90;;;22.53;100.00;100382.81;5022202;28;20103;-78
2023/08/04 09:57:38;;;;;;;4.22;1.35;;;21.90;99.90;;;23.22;100.00;100395.19;5009701;28;20048;-76
2023/08/04 10:00:11;;;;;;;;;;;22.00;99.90;;;24.01;97.81;100396.09;5022924;28;20061;-77
2023/08/04 10:02:38;;;;;;;3.17;1.30;;;;;;;25.01;96.56;100392.50;5018475;28;19939;-76
2023/08/04 10:05:05;;;;;;;3.03;0.90;;;;;;;24.98;86.71;100389.19;5025275;28;20478;-77
2023/08/04 10:07:31;;;;;;;4.38;1.13;;;;;;;24.05;100.00;100393.47;5026620;28;20128;-76
2023/08/04 10:10:00;;;;;;;2.65;1.00;;;;;;;22.91;91.52;100395.78;5015733;28;20080;-76